Wiley Ford, West Virginia
Current Conditions -  °F | °C
As of 8:54 AM on Thursday 23 Oct 2014 (Local Time) from KCBE Reporting Station
Overcast Overcast  
Wind Chill: 52°   Ceiling: 2700
Heat Index: 52°   Visibility: 10mi
Dew Point: 41°   Wind: 15mph
Humidity: 67%   Direction: 330°NNW
Pressure: 30.08"   Gusts: 21mph
Location:  39.62°N, 78.77°W
Report Text: KCBE 231254Z AUTO 33013G18KT 10SM OVC027 11/05 A3008 RMK AO1
Loading
Personal Weather Stations






























Interactive Weather Map
Tropical Storm Tracking
New forecast layout! Learn more

10-Day Weather Forecast

Advertisements
Track Severe Weather on mobile